createdAt,value
2018-11-12T00:00:25.343Z,5.34
2018-11-12T00:02:58.399Z,5.33
2018-11-12T00:05:30.433Z,5.40
2018-11-12T00:08:02.471Z,5.43
2018-11-12T00:25:15.518Z,5.86
2018-11-12T00:27:47.527Z,5.88
2018-11-12T00:30:19.572Z,5.91
2018-11-12T00:32:51.641Z,5.88
2018-11-12T00:35:23.771Z,5.94
2018-11-12T00:37:55.832Z,5.97
2018-11-12T00:40:27.848Z,5.82
2018-11-12T00:42:59.987Z,5.75
2018-11-12T00:45:32.017Z,5.71
2018-11-12T00:48:04.211Z,5.76
2018-11-12T00:50:36.211Z,5.67
2018-11-12T00:53:08.211Z,5.62
2018-11-12T00:55:40.326Z,5.57
2018-11-12T00:58:12.326Z,5.54
2018-11-12T01:00:44.347Z,5.36
2018-11-12T01:03:16.422Z,5.22
2018-11-12T01:05:48.472Z,5.16
2018-11-12T01:08:20.529Z,5.12
2018-11-12T01:10:52.557Z,5.10
2018-11-12T01:13:24.628Z,5.15
2018-11-12T01:15:56.655Z,5.25
2018-11-12T01:18:28.745Z,5.30
2018-11-12T01:21:00.784Z,5.28
2018-11-12T01:23:32.922Z,5.25
2018-11-12T01:26:04.964Z,5.08
2018-11-12T01:28:37.050Z,4.81
2018-11-12T01:31:09.117Z,4.86
2018-11-12T01:33:41.174Z,4.85
2018-11-12T01:36:13.176Z,4.78
2018-11-12T01:38:45.214Z,4.81
2018-11-12T01:41:17.270Z,4.74
2018-11-12T01:43:49.296Z,4.70
2018-11-12T01:46:21.414Z,4.61
2018-11-12T01:48:53.431Z,4.56
2018-11-12T01:51:25.468Z,4.58
2018-11-12T01:53:57.535Z,4.49
2018-11-12T01:56:29.551Z,4.42
2018-11-12T01:59:01.629Z,4.61
2018-11-12T02:01:33.734Z,4.56
2018-11-12T02:04:05.810Z,4.57
2018-11-12T02:06:37.811Z,4.52
2018-11-12T02:09:11.236Z,4.38
2018-11-12T02:11:43.187Z,4.40
2018-11-12T02:14:15.271Z,4.52
2018-11-12T02:16:47.361Z,4.56
2018-11-12T02:19:19.381Z,4.63
2018-11-12T02:21:51.364Z,4.71
2018-11-12T02:24:23.428Z,4.79
2018-11-12T02:26:55.415Z,4.84
2018-11-12T02:29:27.420Z,4.85
2018-11-12T02:31:59.409Z,4.88
2018-11-12T02:34:31.376Z,4.96
2018-11-12T02:37:03.400Z,5.07
2018-11-12T02:39:35.534Z,5.13
2018-11-12T02:42:07.547Z,5.23
2018-11-12T02:44:39.614Z,5.24
2018-11-12T02:47:11.647Z,5.31
2018-11-12T02:49:43.682Z,5.30
2018-11-12T02:52:15.688Z,5.27
2018-11-12T02:54:47.685Z,4.98
2018-11-12T02:57:19.767Z,5.36
2018-11-12T02:59:51.729Z,5.39
2018-11-12T03:02:23.708Z,5.54
2018-11-12T03:04:55.735Z,5.50
2018-11-12T03:07:27.721Z,5.57
2018-11-12T03:09:59.734Z,5.46
2018-11-12T03:12:31.725Z,5.60
2018-11-12T03:15:05.064Z,5.60
2018-11-12T03:17:37.115Z,5.65
2018-11-12T03:20:11.365Z,5.64
2018-11-12T03:22:43.397Z,5.69
2018-11-12T03:25:16.647Z,5.66
2018-11-12T03:27:49.180Z,5.65
2018-11-12T03:30:22.255Z,5.62
2018-11-12T03:32:54.260Z,5.59
2018-11-12T03:35:26.268Z,5.59
2018-11-12T03:37:58.269Z,5.61
2018-11-12T03:40:30.252Z,5.61
2018-11-12T03:43:02.221Z,5.56
2018-11-12T03:45:34.214Z,5.48
2018-11-12T03:48:06.289Z,5.45
2018-11-12T03:50:38.316Z,5.42
2018-11-12T03:53:10.337Z,5.47
2018-11-12T03:55:42.379Z,5.43
2018-11-12T03:58:14.383Z,5.36
2018-11-12T04:00:46.409Z,5.43
2018-11-12T04:03:18.429Z,5.35
2018-11-12T04:05:50.491Z,5.28
2018-11-12T04:08:22.580Z,5.34
2018-11-12T04:10:54.678Z,5.27
2018-11-12T04:13:26.700Z,5.31
2018-11-12T04:15:58.806Z,5.24
2018-11-12T04:18:30.871Z,5.18
2018-11-12T04:21:02.960Z,5.22
2018-11-12T04:23:34.971Z,5.19
2018-11-12T04:26:07.034Z,5.10
2018-11-12T04:28:39.112Z,5.04
2018-11-12T04:31:11.262Z,4.98
2018-11-12T04:33:43.319Z,5.00
2018-11-12T04:36:15.347Z,5.01
2018-11-12T04:38:47.468Z,5.00
2018-11-12T04:41:19.536Z,4.97
2018-11-12T04:43:51.612Z,4.92
2018-11-12T04:46:23.682Z,4.93
2018-11-12T04:48:55.701Z,4.94
2018-11-12T04:51:27.728Z,4.88
2018-11-12T04:53:59.748Z,4.92
2018-11-12T04:56:31.796Z,4.72
2018-11-12T04:59:04.278Z,4.72
2018-11-12T05:01:36.379Z,4.75
2018-11-12T05:04:08.488Z,4.74
2018-11-12T05:06:40.618Z,4.60
2018-11-12T05:09:12.687Z,4.47
2018-11-12T05:11:44.732Z,4.34
2018-11-12T05:14:16.736Z,4.35
2018-11-12T05:16:48.882Z,4.32
2018-11-12T05:19:20.909Z,4.13
2018-11-12T05:21:53.168Z,4.16
2018-11-12T05:24:25.192Z,4.14
2018-11-12T05:26:57.284Z,4.16
2018-11-12T05:29:29.333Z,4.18
2018-11-12T05:32:01.382Z,4.23
2018-11-12T05:34:33.372Z,4.30
2018-11-12T05:37:05.645Z,4.29
2018-11-12T05:39:37.680Z,4.28
2018-11-12T05:42:09.719Z,4.37
2018-11-12T05:44:41.763Z,4.45
2018-11-12T05:47:13.809Z,4.51
2018-11-12T05:49:45.829Z,4.51
2018-11-12T05:52:17.877Z,4.58
2018-11-12T05:54:49.954Z,4.57
2018-11-12T05:57:22.042Z,4.64
2018-11-12T05:59:54.080Z,4.65
2018-11-12T06:02:26.109Z,4.74
2018-11-12T06:04:58.237Z,4.64
2018-11-12T06:07:30.218Z,4.95
2018-11-12T06:10:02.414Z,4.91
2018-11-12T06:12:34.512Z,4.93
2018-11-12T06:15:07.624Z,4.99
2018-11-12T06:17:40.139Z,4.98
2018-11-12T06:20:16.604Z,5.02
2018-11-12T06:22:48.754Z,5.07
2018-11-12T06:25:23.126Z,5.12
2018-11-12T06:27:55.333Z,5.16
2018-11-12T06:30:29.086Z,5.18
2018-11-12T06:33:01.196Z,5.18
2018-11-12T06:35:33.289Z,5.20
2018-11-12T06:38:05.522Z,5.32
2018-11-12T06:40:37.586Z,5.39
2018-11-12T06:43:09.790Z,5.33
2018-11-12T06:45:41.728Z,5.38
2018-11-12T06:48:13.776Z,5.49
2018-11-12T06:50:45.873Z,5.58
2018-11-12T06:53:18.136Z,5.68
2018-11-12T06:55:50.208Z,5.66
2018-11-12T06:58:22.236Z,5.72
2018-11-12T07:00:54.374Z,5.82
2018-11-12T07:03:26.369Z,5.82
2018-11-12T07:05:58.437Z,5.74
2018-11-12T07:08:30.511Z,5.83
2018-11-12T07:11:02.552Z,5.94
2018-11-12T07:13:34.604Z,6.00
2018-11-12T07:16:06.597Z,5.99
2018-11-12T07:18:38.794Z,5.95
2018-11-12T07:21:10.791Z,6.03
2018-11-12T07:23:42.864Z,6.04
2018-11-12T07:26:14.898Z,6.08
2018-11-12T07:28:46.938Z,6.06
2018-11-12T07:31:19.139Z,6.05
2018-11-12T07:33:51.112Z,6.09
2018-11-12T07:36:23.152Z,6.16
2018-11-12T07:38:55.145Z,6.20
2018-11-12T07:41:27.172Z,6.14
2018-11-12T07:43:59.209Z,6.15
2018-11-12T07:46:31.215Z,6.22
2018-11-12T07:49:03.367Z,6.31
2018-11-12T07:51:35.380Z,6.38
2018-11-12T07:54:07.442Z,6.38
2018-11-12T07:56:39.473Z,6.43
2018-11-12T07:59:11.473Z,6.37
2018-11-12T08:01:43.521Z,6.36
2018-11-12T08:04:15.556Z,6.43
2018-11-12T08:06:47.559Z,6.42
2018-11-12T08:09:19.648Z,6.56
2018-11-12T08:11:51.691Z,6.50
2018-11-12T08:14:23.722Z,6.66
2018-11-12T08:16:55.786Z,6.60
2018-11-12T08:19:28.029Z,6.50
2018-11-12T08:22:00.100Z,6.52
2018-11-12T08:24:32.195Z,6.61
2018-11-12T08:27:04.293Z,6.64
2018-11-12T08:29:36.399Z,6.65
2018-11-12T08:32:08.422Z,6.64
2018-11-12T08:34:40.489Z,6.73
2018-11-12T08:37:12.556Z,6.73
2018-11-12T08:39:44.875Z,6.73
2018-11-12T08:42:16.737Z,6.79
2018-11-12T08:44:48.793Z,6.84
2018-11-12T08:47:20.823Z,6.81
2018-11-12T08:49:52.846Z,6.95
2018-11-12T08:52:24.900Z,7.06
2018-11-12T08:54:56.981Z,7.06
2018-11-12T08:57:29.015Z,6.97
2018-11-12T09:00:01.052Z,7.06
2018-11-12T09:02:33.080Z,7.14
2018-11-12T09:05:06.388Z,7.05
2018-11-12T09:07:39.321Z,7.09
2018-11-12T09:10:13.502Z,7.17
2018-11-12T09:12:45.748Z,7.26
2018-11-12T09:15:17.774Z,7.23
2018-11-12T09:17:49.861Z,7.23
2018-11-12T09:20:23.141Z,7.26
2018-11-12T09:22:55.522Z,7.44
2018-11-12T09:25:28.096Z,7.58
2018-11-12T09:28:00.115Z,7.61
2018-11-12T09:30:32.169Z,7.54
2018-11-12T09:33:04.452Z,7.61
2018-11-12T09:35:36.469Z,7.52
2018-11-12T09:38:08.538Z,7.56
2018-11-12T09:40:40.520Z,7.47
2018-11-12T09:43:12.577Z,7.44
2018-11-12T09:45:44.658Z,7.45
2018-11-12T09:48:16.699Z,7.61
2018-11-12T09:50:48.741Z,7.47
2018-11-12T09:53:20.777Z,7.67
2018-11-12T09:55:52.769Z,7.70
2018-11-12T09:58:24.843Z,7.82
2018-11-12T10:00:57.497Z,7.81
2018-11-12T10:03:30.526Z,7.85
2018-11-12T10:06:02.153Z,7.94
2018-11-12T10:08:36.640Z,8.15
2018-11-12T10:11:09.670Z,8.16
2018-11-12T10:13:41.504Z,8.04
2018-11-12T10:16:15.087Z,8.15
2018-11-12T10:18:43.780Z,8.19
2018-11-12T10:21:15.860Z,8.17
2018-11-12T10:23:47.947Z,8.15
2018-11-12T10:26:20.042Z,8.12
2018-11-12T10:28:52.056Z,8.25
2018-11-12T10:31:24.193Z,8.28
2018-11-12T10:33:56.267Z,8.41
2018-11-12T10:36:28.244Z,8.27
2018-11-12T10:39:00.258Z,8.31
2018-11-12T10:41:32.301Z,8.38
2018-11-12T10:44:04.544Z,8.46
2018-11-12T10:46:36.602Z,8.51
2018-11-12T10:49:08.627Z,8.45
2018-11-12T10:51:41.252Z,8.35
2018-11-12T10:54:13.345Z,8.51
2018-11-12T10:56:45.353Z,8.56
2018-11-12T10:59:17.369Z,8.63
2018-11-12T11:01:57.816Z,8.73
2018-11-12T11:04:30.175Z,8.84
2018-11-12T11:07:02.213Z,8.93
2018-11-12T11:09:34.264Z,8.93
2018-11-12T11:12:06.353Z,8.82
2018-11-12T11:14:38.351Z,8.85
2018-11-12T11:17:10.329Z,8.55
2018-11-12T11:19:42.350Z,8.41
2018-11-12T11:22:14.466Z,8.76
2018-11-12T11:24:46.469Z,8.69
2018-11-12T11:27:18.489Z,8.78
2018-11-12T11:29:50.539Z,8.95
2018-11-12T11:32:22.544Z,8.74
2018-11-12T11:34:54.718Z,8.78
2018-11-12T11:37:26.720Z,8.78
2018-11-12T11:39:58.724Z,8.80
2018-11-12T11:42:30.719Z,8.89
2018-11-12T11:45:02.866Z,8.96
2018-11-12T11:47:35.043Z,9.09
2018-11-12T11:50:08.598Z,9.13
2018-11-12T11:52:40.595Z,8.97
2018-11-12T11:55:13.972Z,9.00
2018-11-12T11:57:46.444Z,9.21
2018-11-12T12:00:19.857Z,9.16
2018-11-12T12:02:52.787Z,8.94
2018-11-12T12:05:25.369Z,9.01
2018-11-12T12:07:57.774Z,9.07
2018-11-12T12:10:29.821Z,9.06
2018-11-12T12:13:01.855Z,9.08
2018-11-12T12:15:33.866Z,9.09
2018-11-12T12:18:05.896Z,9.20
2018-11-12T12:20:37.884Z,8.96
2018-11-12T12:23:09.890Z,9.05
2018-11-12T12:25:41.959Z,9.02
2018-11-12T12:28:13.927Z,8.97
2018-11-12T12:30:45.955Z,8.94
2018-11-12T12:33:18.021Z,8.99
2018-11-12T12:35:50.127Z,8.88
2018-11-12T12:38:22.088Z,8.95
2018-11-12T12:40:54.052Z,8.90
2018-11-12T12:43:26.106Z,8.85
2018-11-12T12:45:58.210Z,8.89
2018-11-12T12:48:30.158Z,9.22
2018-11-12T12:51:02.153Z,9.39
2018-11-12T12:53:34.147Z,9.36
2018-11-12T12:56:06.201Z,9.20
2018-11-12T12:58:38.283Z,9.02
2018-11-12T13:01:10.439Z,8.90
2018-11-12T13:03:42.499Z,8.98
2018-11-12T13:06:14.528Z,9.09
2018-11-12T13:08:46.606Z,9.15
2018-11-12T13:11:18.615Z,9.18
2018-11-12T13:13:50.648Z,9.10
2018-11-12T13:16:22.724Z,9.23
2018-11-12T13:18:54.814Z,9.20
2018-11-12T13:21:26.866Z,9.21
2018-11-12T13:23:58.979Z,9.11
2018-11-12T13:26:31.076Z,9.17
2018-11-12T13:29:03.116Z,9.22
2018-11-12T13:31:35.111Z,9.17
2018-11-12T13:34:07.120Z,9.22
2018-11-12T13:36:39.145Z,9.21
2018-11-12T13:39:12.168Z,9.10
2018-11-12T13:41:44.105Z,8.97
2018-11-12T13:44:16.115Z,9.11
2018-11-12T13:46:50.882Z,9.23
2018-11-12T13:49:23.024Z,9.28
2018-11-12T13:51:55.059Z,9.35
2018-11-12T13:54:27.109Z,9.43
2018-11-12T13:56:59.087Z,9.19
2018-11-12T13:59:31.107Z,9.16
2018-11-12T14:02:03.173Z,9.19
2018-11-12T14:04:35.236Z,9.10
2018-11-12T14:07:07.219Z,9.11
2018-11-12T14:09:39.251Z,9.00
2018-11-12T14:12:11.335Z,8.83
2018-11-12T14:14:43.396Z,8.79
2018-11-12T14:17:15.428Z,8.73
2018-11-12T14:19:48.162Z,8.77
2018-11-12T14:22:20.237Z,8.79
2018-11-12T14:24:52.311Z,8.86
2018-11-12T14:27:24.375Z,8.83
2018-11-12T14:29:56.421Z,8.75
2018-11-12T14:32:28.836Z,8.60
2018-11-12T14:35:00.872Z,8.66
2018-11-12T14:37:33.081Z,8.73
2018-11-12T14:40:06.501Z,8.73
2018-11-12T14:42:38.576Z,8.47
2018-11-12T14:45:12.564Z,8.40
2018-11-12T14:47:44.992Z,8.44
2018-11-12T14:50:17.172Z,8.37
2018-11-12T14:52:49.200Z,8.37
2018-11-12T14:55:21.849Z,8.33
2018-11-12T14:57:53.928Z,8.31
2018-11-12T15:00:26.506Z,8.30
2018-11-12T15:02:58.585Z,8.29
2018-11-12T15:05:30.671Z,8.25
2018-11-12T15:08:02.761Z,8.34
2018-11-12T15:10:34.815Z,8.34
2018-11-12T15:13:06.965Z,8.37
2018-11-12T15:15:39.074Z,8.35
2018-11-12T15:18:11.100Z,8.27
2018-11-12T15:20:43.965Z,8.34
2018-11-12T15:23:15.979Z,8.32
2018-11-12T15:25:48.045Z,8.22
2018-11-12T15:28:20.094Z,8.20
2018-11-12T15:30:52.164Z,8.21
2018-11-12T15:33:24.181Z,8.20
2018-11-12T15:35:56.204Z,8.13
2018-11-12T15:38:28.337Z,8.17
2018-11-12T15:41:00.359Z,8.22
2018-11-12T15:43:32.398Z,8.22
2018-11-12T15:46:04.646Z,8.21
2018-11-12T15:48:36.813Z,8.16
2018-11-12T15:51:08.843Z,8.16
2018-11-12T15:53:40.917Z,8.26
2018-11-12T15:56:13.017Z,8.20
2018-11-12T15:58:45.055Z,8.25
2018-11-12T16:01:17.124Z,8.30
2018-11-12T16:03:49.225Z,8.24
2018-11-12T16:06:21.298Z,8.29
2018-11-12T16:08:53.280Z,8.26
2018-11-12T16:14:04.913Z,8.30
2018-11-12T16:16:37.148Z,8.16
2018-11-12T16:19:09.854Z,8.16
2018-11-12T16:21:41.870Z,8.17
2018-11-12T16:24:13.873Z,8.10
2018-11-12T16:26:45.947Z,8.09
2018-11-12T16:29:17.913Z,8.05
2018-11-12T16:31:50.016Z,8.17
2018-11-12T16:34:22.003Z,8.11
2018-11-12T16:36:54.033Z,8.11
2018-11-12T16:39:26.012Z,8.19
2018-11-12T16:41:58.038Z,8.13
2018-11-12T16:44:30.027Z,8.04
2018-11-12T16:47:02.016Z,8.06
2018-11-12T16:49:34.187Z,8.01
2018-11-12T16:52:06.211Z,7.99
2018-11-12T16:54:38.218Z,7.94
2018-11-12T16:57:10.400Z,7.90
2018-11-12T16:59:42.411Z,7.85
2018-11-12T17:02:14.397Z,7.86
2018-11-12T17:04:46.400Z,7.79
2018-11-12T17:07:18.398Z,7.82
2018-11-12T17:09:50.373Z,7.82
2018-11-12T17:12:22.433Z,7.79
2018-11-12T17:14:54.425Z,7.87
2018-11-12T17:17:26.475Z,7.85
2018-11-12T17:19:58.512Z,7.84
2018-11-12T17:22:30.568Z,7.83
2018-11-12T17:25:02.989Z,7.89
2018-11-12T17:27:34.991Z,7.96
2018-11-12T17:30:10.828Z,7.94
2018-11-12T17:32:43.215Z,7.84
2018-11-12T17:35:16.432Z,7.83
2018-11-12T17:37:48.465Z,7.82
2018-11-12T17:40:21.665Z,7.81
2018-11-12T17:42:54.533Z,7.85
2018-11-12T17:45:27.396Z,7.84
2018-11-12T17:47:59.395Z,7.79
2018-11-12T17:50:31.371Z,7.82
2018-11-12T17:53:03.368Z,7.84
2018-11-12T17:55:35.387Z,7.90
2018-11-12T17:58:07.415Z,7.85
2018-11-12T18:00:39.410Z,7.82
2018-11-12T18:03:11.423Z,7.80
2018-11-12T18:05:43.404Z,7.82
2018-11-12T18:08:15.449Z,7.79
2018-11-12T18:10:47.372Z,7.87
2018-11-12T18:13:19.379Z,7.84
2018-11-12T18:15:51.392Z,7.91
2018-11-12T18:18:23.371Z,7.98
2018-11-12T18:20:55.355Z,7.97
2018-11-12T18:23:27.364Z,7.91
2018-11-12T18:25:59.375Z,7.97
2018-11-12T18:28:31.387Z,7.89
2018-11-12T18:31:03.506Z,8.00
2018-11-12T18:33:35.444Z,7.93
2018-11-12T18:36:07.451Z,7.89
2018-11-12T18:38:39.459Z,7.82
2018-11-12T18:41:11.467Z,7.82
2018-11-12T18:43:43.531Z,7.76
2018-11-12T18:46:15.518Z,7.75
2018-11-12T18:48:47.549Z,7.76
2018-11-12T18:51:19.563Z,7.72
2018-11-12T18:53:51.636Z,7.73
2018-11-12T18:56:23.632Z,7.75
2018-11-12T18:58:55.613Z,7.78
2018-11-12T19:01:27.640Z,7.78
2018-11-12T19:03:59.625Z,7.81
2018-11-12T19:06:31.689Z,7.83
2018-11-12T19:09:06.154Z,7.86
2018-11-12T19:11:38.308Z,7.85
2018-11-12T19:14:10.322Z,7.77
2018-11-12T19:16:42.361Z,7.66
2018-11-12T19:19:14.438Z,7.73
2018-11-12T19:21:46.511Z,7.75
2018-11-12T19:24:18.543Z,7.68
2018-11-12T19:26:50.588Z,7.72
2018-11-12T19:29:22.640Z,7.75
2018-11-12T19:31:54.749Z,7.75
2018-11-12T19:34:26.918Z,7.76
2018-11-12T19:36:59.036Z,7.77
2018-11-12T19:39:31.078Z,7.80
2018-11-12T19:42:03.116Z,7.80
2018-11-12T19:44:35.140Z,7.72
2018-11-12T19:47:07.188Z,7.67
2018-11-12T19:49:39.276Z,7.68
2018-11-12T19:52:11.320Z,7.73
2018-11-12T19:54:43.366Z,7.75
2018-11-12T19:57:15.426Z,7.72
2018-11-12T19:59:47.631Z,7.68
2018-11-12T20:02:19.809Z,7.67
2018-11-12T20:04:51.900Z,7.72
2018-11-12T20:07:23.995Z,7.70
2018-11-12T20:09:56.043Z,7.69
2018-11-12T20:12:28.197Z,7.75
2018-11-12T20:15:00.260Z,7.81
2018-11-12T20:17:32.435Z,7.76
2018-11-12T20:20:07.510Z,7.83
2018-11-12T20:22:39.553Z,7.82
2018-11-12T20:25:13.054Z,7.85
2018-11-12T20:27:45.599Z,7.76
2018-11-12T20:30:21.793Z,7.75
2018-11-12T20:32:54.025Z,7.69
2018-11-12T20:35:26.049Z,7.67
2018-11-12T20:37:58.120Z,7.71
2018-11-12T20:40:30.162Z,7.71
2018-11-12T20:43:02.254Z,7.75
2018-11-12T20:45:34.337Z,7.59
2018-11-12T20:48:06.519Z,7.56
2018-11-12T20:50:38.506Z,7.54
2018-11-12T20:53:10.527Z,7.59
2018-11-12T20:55:42.556Z,7.63
2018-11-12T20:58:14.614Z,7.68
2018-11-12T21:00:46.617Z,7.59
2018-11-12T21:03:18.715Z,7.50
2018-11-12T21:05:50.785Z,7.57
2018-11-12T21:08:22.843Z,7.58
2018-11-12T21:10:54.873Z,7.61
2018-11-12T21:13:27.070Z,7.64
2018-11-12T21:15:59.091Z,7.58
2018-11-12T21:18:31.659Z,7.55
2018-11-12T21:21:04.828Z,7.56
2018-11-12T21:23:37.812Z,7.54
2018-11-12T21:26:09.971Z,7.44
2018-11-12T21:28:42.095Z,7.40
2018-11-12T21:31:14.264Z,7.35
2018-11-12T21:33:46.589Z,7.31
2018-11-12T21:36:19.005Z,7.25
2018-11-12T21:38:51.391Z,7.24
2018-11-12T21:44:02.310Z,7.32
2018-11-12T21:46:34.728Z,7.32
2018-11-12T21:49:06.927Z,7.40
2018-11-12T21:51:39.334Z,7.36
2018-11-12T21:54:11.679Z,7.31
2018-11-12T21:56:44.119Z,7.27
2018-11-12T21:59:16.773Z,7.27
2018-11-12T22:01:49.061Z,7.26
2018-11-12T22:04:21.455Z,7.24
2018-11-12T22:06:53.879Z,7.22
2018-11-12T22:09:26.264Z,7.28
2018-11-12T22:11:58.755Z,7.31
2018-11-12T22:14:31.131Z,7.32
2018-11-12T22:17:03.574Z,7.34
2018-11-12T22:19:36.095Z,7.31
2018-11-12T22:22:08.303Z,7.34
2018-11-12T22:24:40.670Z,7.30
2018-11-12T22:27:13.009Z,7.35
2018-11-12T22:29:45.559Z,7.30
2018-11-12T22:32:17.835Z,7.25
2018-11-12T22:34:50.135Z,7.16
2018-11-12T22:37:22.784Z,7.22
2018-11-12T22:39:55.022Z,7.26
2018-11-12T22:42:27.326Z,7.26
2018-11-12T22:44:59.620Z,7.21
2018-11-12T22:47:32.003Z,7.08
2018-11-12T22:50:05.542Z,7.01
2018-11-12T22:52:38.252Z,7.03
2018-11-12T22:55:11.772Z,7.06
2018-11-12T22:57:44.099Z,7.07
2018-11-12T23:00:23.533Z,7.04
2018-11-12T23:02:56.563Z,6.97
2018-11-12T23:05:28.873Z,7.03
2018-11-12T23:08:01.248Z,7.07
2018-11-12T23:10:33.605Z,7.04
2018-11-12T23:13:05.968Z,7.09
2018-11-12T23:15:38.352Z,7.03
2018-11-12T23:18:10.696Z,7.06
2018-11-12T23:20:42.769Z,7.09
2018-11-12T23:23:14.808Z,7.09
2018-11-12T23:25:46.864Z,7.09
2018-11-12T23:28:19.014Z,7.08
2018-11-12T23:30:51.102Z,7.09
2018-11-12T23:33:23.170Z,7.02
2018-11-12T23:35:55.192Z,6.96
2018-11-12T23:38:27.219Z,6.89
2018-11-12T23:40:59.224Z,6.87
2018-11-12T23:43:31.276Z,6.86
2018-11-12T23:46:03.326Z,6.78
2018-11-12T23:48:35.437Z,6.79
2018-11-12T23:51:07.640Z,6.79
2018-11-12T23:53:39.660Z,6.80
2018-11-12T23:56:11.705Z,6.91
2018-11-12T23:58:43.811Z,6.86
